Time;durP1;ratioP1;P1;durP2;ratioP2;P2;SDS_P1;SDS_P2;PMS_P1;PMS_P2;Temp;Humidity;BMP_temperature;BMP_pressure;BME280_temperature;BME280_humidity;BME280_pressure;Samples;Min_cycle;Max_cycle;Signal;HPM_P1;HPM_P2
2021/10/22 00:01:47;;;;;;;0.40;0.30;;;;;;;7.54;93.60;100241.66;5055310;28;20438;-76
2021/10/22 00:04:13;;;;;;;0.40;0.30;;;;;;;7.54;93.69;100245.13;5055267;28;20441;-76
2021/10/22 00:06:40;;;;;;;0.40;0.30;;;;;;;7.54;94.08;100244.34;5055109;28;20466;-73
2021/10/22 00:09:06;;;;;;;0.40;0.30;;;;;;;7.52;93.50;100243.81;5055123;28;20450;-75
2021/10/22 00:11:34;;;;;;;0.40;0.30;;;;;;;7.51;93.59;100256.50;5055090;28;20442;-74
2021/10/22 00:14:01;;;;;;;0.40;0.30;;;;;;;7.52;94.25;100252.69;5054879;28;20494;-74
2021/10/22 00:16:28;;;;;;;0.40;0.30;;;;;;;7.50;93.68;100259.47;5053993;28;20454;-74
2021/10/22 00:18:55;;;;;;;0.40;0.30;;;;;;;7.46;94.42;100261.16;5054762;28;20467;-74
2021/10/22 00:21:22;;;;;;;0.40;0.20;;;;;;;7.45;94.83;100262.25;5054911;28;20446;-74
2021/10/22 00:23:48;;;;;;;0.40;0.30;;;;;;;7.43;94.21;100264.41;5054812;28;20442;-74
2021/10/22 00:26:15;;;;;;;0.40;0.20;;;;;;;7.39;93.87;100274.16;5054435;28;20940;-74
2021/10/22 00:28:41;;;;;;;0.40;0.30;;;;;;;7.40;93.62;100265.00;5054741;28;20445;-74
2021/10/22 00:31:08;;;;;;;0.40;0.30;;;;;;;7.38;92.92;100264.47;5054729;28;20470;-74
2021/10/22 00:33:34;;;;;;;0.40;0.23;;;;;;;7.36;93.32;100280.94;5054628;28;20446;-74
2021/10/22 00:36:04;;;;;;;0.40;0.30;;;;;;;7.21;94.81;100284.56;5054657;28;20434;-74
2021/10/22 00:38:31;;;;;;;0.40;0.30;;;;;;;7.25;95.59;100292.91;5054423;28;20616;-74
2021/10/22 00:40:57;;;;;;;0.40;0.30;;;;;;;7.29;94.05;100292.03;5054622;28;20537;-74
2021/10/22 00:43:28;;;;;;;0.40;0.30;;;;;;;7.34;94.47;100294.66;5054687;28;20434;-74
2021/10/22 00:45:54;;;;;;;0.40;0.30;;;;;;;7.38;94.10;100294.09;5054146;28;20916;-74
2021/10/22 00:48:21;;;;;;;0.40;0.30;;;;;;;7.41;94.30;100299.72;5054340;28;20477;-74
2021/10/22 00:50:50;;;;;;;0.40;0.30;;;;;;;7.42;93.78;100301.34;5054328;28;20450;-74
2021/10/22 00:53:19;;;;;;;0.40;0.30;;;;;;;7.39;92.66;100301.09;5054264;28;20819;-74
2021/10/22 00:55:45;;;;;;;0.40;0.30;;;;;;;7.43;93.80;100312.91;5053864;28;20478;-74
2021/10/22 00:58:12;;;;;;;0.40;0.30;;;;;;;7.44;94.73;100307.25;5054120;28;20550;-74
2021/10/22 01:00:39;;;;;;;0.40;0.30;;;;;;;7.47;93.91;100314.75;5054146;28;20465;-74
2021/10/22 01:03:06;;;;;;;0.40;0.30;;;;;;;7.44;92.69;100306.44;5054033;28;20533;-75
2021/10/22 01:05:33;;;;;;;0.40;0.30;;;;;;;7.38;92.36;100304.88;5054107;28;20464;-75
2021/10/22 01:07:59;;;;;;;0.40;0.30;;;;;;;7.41;91.69;100298.94;5054048;28;20462;-74
2021/10/22 01:10:27;;;;;;;0.40;0.20;;;;;;;7.40;92.42;100297.34;5054012;28;20465;-74
2021/10/22 01:12:55;;;;;;;0.40;0.20;;;;;;;7.39;92.51;100298.41;5053959;28;20446;-74
2021/10/22 01:15:22;;;;;;;0.40;0.20;;;;;;;7.38;93.27;100299.50;5053783;28;20577;-74
2021/10/22 01:17:49;;;;;;;0.40;0.20;;;;;;;7.32;93.42;100301.44;5053517;28;20508;-75
2021/10/22 01:20:18;;;;;;;0.40;0.30;;;;;;;7.39;93.26;100296.50;5053637;28;20464;-75
2021/10/22 01:22:48;;;;;;;0.40;0.30;;;;;;;7.37;91.19;100297.91;5053467;28;20944;-74
2021/10/22 01:25:16;;;;;;;0.40;0.20;;;;;;;7.34;91.74;100304.66;5053697;28;20442;-74
2021/10/22 01:27:44;;;;;;;0.40;0.30;;;;;;;7.32;91.32;100294.16;5053470;28;20474;-74
2021/10/22 01:30:12;;;;;;;0.40;0.30;;;;;;;7.32;91.87;100287.97;5053314;28;20966;-74
2021/10/22 01:32:40;;;;;;;0.40;0.30;;;;;;;7.31;92.44;100286.38;5053248;28;20453;-74
2021/10/22 01:35:09;;;;;;;0.40;0.20;;;;;;;7.37;92.27;100293.31;5053557;28;20486;-74
2021/10/22 01:37:36;;;;;;;0.40;0.30;;;;;;;7.36;91.64;100294.41;5053505;28;20462;-74
2021/10/22 01:40:05;;;;;;;0.40;0.20;;;;;;;7.32;91.89;100299.56;5053537;28;20492;-74
2021/10/22 01:42:32;;;;;;;0.40;0.20;;;;;;;7.33;91.28;100298.47;5053378;28;20946;-74
2021/10/22 01:44:58;;;;;;;0.40;0.30;;;;;;;7.29;91.84;100297.44;5053441;28;20472;-74
2021/10/22 01:47:25;;;;;;;0.40;0.30;;;;;;;7.31;92.15;100308.72;5053580;28;20482;-74
2021/10/22 01:49:52;;;;;;;0.40;0.30;;;;;;;7.32;91.46;100304.94;5053135;28;20978;-74
2021/10/22 01:52:18;;;;;;;0.40;0.23;;;;;;;7.30;91.44;100306.31;5053371;28;20512;-75
2021/10/22 01:54:45;;;;;;;0.40;0.30;;;;;;;7.29;91.15;100297.44;5052938;28;20892;-75
2021/10/22 01:57:13;;;;;;;0.40;0.30;;;;;;;7.27;92.56;100299.63;5053164;28;20462;-74
2021/10/22 01:59:40;;;;;;;0.40;0.30;;;;;;;7.27;93.14;100317.69;5053214;28;20446;-75
2021/10/22 02:02:07;;;;;;;0.40;0.30;;;;;;;7.23;92.86;100303.97;5053161;28;20441;-75
2021/10/22 02:04:33;;;;;;;0.40;0.20;;;;;;;7.29;92.17;100308.19;5052822;28;20825;-75
2021/10/22 02:07:00;;;;;;;0.40;0.30;;;;;;;7.34;91.48;100318.13;5053057;28;20561;-75
2021/10/22 02:09:26;;;;;;;0.40;0.30;;;;;;;7.29;91.56;100300.13;5053118;28;20454;-75
2021/10/22 02:11:53;;;;;;;0.40;0.30;;;;;;;7.32;91.02;100309.53;5053053;28;20584;-75
2021/10/22 02:14:21;;;;;;;0.40;0.30;;;;;;;7.30;91.58;100309.84;5053008;28;20857;-75
2021/10/22 02:16:47;;;;;;;0.40;0.30;;;;;;;7.30;91.65;100307.13;5052710;28;20975;-74
2021/10/22 02:19:14;;;;;;;0.40;0.30;;;;;;;7.26;91.24;100305.28;5052799;28;20477;-74
2021/10/22 02:21:41;;;;;;;0.40;0.30;;;;;;;7.18;91.22;100306.72;5052679;28;20936;-75
2021/10/22 02:24:08;;;;;;;0.40;0.30;;;;;;;7.22;91.70;100301.56;5052957;28;20451;-75
2021/10/22 02:26:35;;;;;;;0.40;0.30;;;;;;;7.25;91.65;100309.06;5052902;28;20832;-75
2021/10/22 02:29:02;;;;;;;0.40;0.30;;;;;;;7.23;91.60;100306.66;5052769;28;20450;-74
2021/10/22 02:31:30;;;;;;;0.40;0.30;;;;;;;7.23;91.50;100309.34;5052897;28;20453;-74
2021/10/22 02:33:56;;;;;;;0.40;0.20;;;;;;;7.23;91.61;100301.28;5052874;28;20435;-74
2021/10/22 02:36:23;;;;;;;0.40;0.30;;;;;;;7.23;92.34;100306.66;5052674;28;20596;-75
2021/10/22 02:38:49;;;;;;;0.40;0.30;;;;;;;7.30;92.30;100317.09;5052510;28;20824;-74
2021/10/22 02:41:16;;;;;;;0.40;0.30;;;;;;;7.38;91.32;100321.06;5056096;28;20469;-74
2021/10/22 02:43:42;;;;;;;0.40;0.30;;;;;;;7.42;90.94;100319.41;5056691;28;20454;-74
2021/10/22 02:46:09;;;;;;;0.40;0.30;;;;;;;7.43;91.03;100312.91;5056692;28;20442;-74
2021/10/22 02:48:37;;;;;;;0.40;0.30;;;;;;;7.47;91.13;100316.63;5056573;28;20883;-74
2021/10/22 02:51:03;;;;;;;0.40;0.20;;;;;;;7.44;91.07;100312.63;5056605;28;20812;-74
2021/10/22 02:53:29;;;;;;;0.40;0.30;;;;;;;7.47;90.94;100311.25;5056290;28;20959;-74
2021/10/22 02:55:56;;;;;;;0.40;0.30;;;;;;;7.49;90.89;100311.78;5056457;28;20493;-74
2021/10/22 02:58:22;;;;;;;0.40;0.23;;;;;;;7.48;91.24;100321.75;5056651;28;20458;-74
2021/10/22 03:00:49;;;;;;;0.40;0.30;;;;;;;7.52;91.07;100321.97;5056467;28;20464;-74
2021/10/22 03:03:15;;;;;;;0.40;0.20;;;;;;;7.46;90.58;100323.91;5056367;28;20441;-74
2021/10/22 03:05:43;;;;;;;0.40;0.20;;;;;;;7.50;90.63;100324.97;5056342;28;20434;-74
2021/10/22 03:08:10;;;;;;;0.40;0.30;;;;;;;7.48;91.65;100323.63;5056202;28;20472;-75
2021/10/22 03:10:36;;;;;;;0.40;0.30;;;;;;;7.48;90.48;100323.63;5056239;28;20441;-73
2021/10/22 03:13:03;;;;;;;0.40;0.30;;;;;;;7.52;92.27;100321.97;5057584;28;20434;-74
2021/10/22 03:15:29;;;;;;;0.40;0.30;;;;;;;7.53;90.54;100324.41;5055862;28;20477;-73
2021/10/22 03:17:56;;;;;;;0.40;0.30;;;;;;;7.53;91.23;100312.81;5056015;28;20470;-74
2021/10/22 03:20:23;;;;;;;0.40;0.30;;;;;;;7.58;89.90;100315.44;5055641;28;20473;-73
2021/10/22 03:22:51;;;;;;;0.40;0.30;;;;;;;7.58;91.05;100326.22;5056007;28;20460;-73
2021/10/22 03:25:17;;;;;;;0.40;0.30;;;;;;;7.64;89.79;100326.97;5055953;28;20453;-73
2021/10/22 03:27:44;;;;;;;0.40;0.30;;;;;;;7.64;90.33;100324.28;5055882;28;20850;-75
2021/10/22 03:30:11;;;;;;;0.40;0.30;;;;;;;7.63;90.05;100323.47;5055879;28;20454;-75
2021/10/22 03:32:38;;;;;;;0.40;0.20;;;;;;;7.56;91.44;100323.00;5055830;28;20442;-75
2021/10/22 03:35:06;;;;;;;0.40;0.30;;;;;;;7.58;91.02;100328.91;5055717;28;20490;-76
2021/10/22 03:37:34;;;;;;;0.40;0.30;;;;;;;7.58;91.25;100324.34;5055682;28;20461;-75
2021/10/22 03:40:01;;;;;;;0.40;0.30;;;;;;;7.61;91.34;100325.63;5055691;28;20454;-75
2021/10/22 03:42:29;;;;;;;0.40;0.30;;;;;;;7.66;92.17;100332.84;5055680;28;20446;-75
2021/10/22 03:44:56;;;;;;;0.40;0.30;;;;;;;7.65;90.76;100321.28;5055752;28;20450;-76
2021/10/22 03:47:22;;;;;;;0.90;0.90;;;;;;;7.64;91.34;100324.28;5055538;28;20462;-75
2021/10/22 03:49:49;;;;;;;0.40;0.30;;;;;;;7.62;90.42;100318.38;5055200;28;20943;-75
2021/10/22 03:52:15;;;;;;;0.40;0.30;;;;;;;7.67;90.77;100323.69;5055423;28;20465;-75
2021/10/22 03:54:42;;;;;;;0.40;0.27;;;;;;;7.68;90.80;100318.00;5055344;28;20445;-74
2021/10/22 03:57:09;;;;;;;0.40;0.20;;;;;;;7.70;90.57;100310.47;5055371;28;20473;-75
2021/10/22 03:59:36;;;;;;;0.40;0.30;;;;;;;7.71;90.10;100319.34;5055269;28;20447;-75
2021/10/22 04:02:03;;;;;;;0.40;0.30;;;;;;;7.61;89.06;100322.94;5055391;28;20438;-73
2021/10/22 04:04:29;;;;;;;0.40;0.30;;;;;;;7.67;90.86;100323.69;5055247;28;20455;-74
2021/10/22 04:06:57;;;;;;;0.40;0.27;;;;;;;7.65;90.75;100315.88;5055110;28;20557;-76
2021/10/22 04:09:25;;;;;;;0.40;0.30;;;;;;;7.66;89.67;100328.28;5054891;28;20959;-76
2021/10/22 04:11:51;;;;;;;0.40;0.30;;;;;;;7.58;89.96;100329.72;5055172;28;20481;-75
2021/10/22 04:14:19;;;;;;;0.40;0.30;;;;;;;7.54;90.71;100317.09;5055072;28;20442;-75
2021/10/22 04:16:46;;;;;;;0.40;0.23;;;;;;;7.56;91.16;100325.69;5054873;28;20576;-76
2021/10/22 04:19:12;;;;;;;0.40;0.30;;;;;;;7.54;90.44;100326.00;5054811;28;20461;-75
2021/10/22 04:21:39;;;;;;;0.40;0.30;;;;;;;7.53;90.45;100319.00;5054709;28;20461;-75
2021/10/22 04:24:05;;;;;;;0.40;0.30;;;;;;;7.50;90.32;100321.47;5054892;28;20450;-75
2021/10/22 04:26:32;;;;;;;0.40;0.23;;;;;;;7.44;90.78;100320.72;5054509;28;20473;-76
2021/10/22 04:28:58;;;;;;;0.40;0.30;;;;;;;7.47;91.81;100327.41;5054465;28;20814;-75
2021/10/22 04:31:26;;;;;;;0.40;0.30;;;;;;;7.47;91.79;100322.03;5054821;28;20446;-75
2021/10/22 04:33:53;;;;;;;0.40;0.30;;;;;;;7.49;91.55;100312.59;5054668;28;20445;-75
2021/10/22 04:36:19;;;;;;;0.40;0.30;;;;;;;7.46;91.21;100312.34;5054472;28;20860;-75
2021/10/22 04:41:30;;;;;;;0.40;0.20;;;;;;;7.45;90.81;100322.31;5054659;28;20406;-75
2021/10/22 04:43:56;;;;;;;0.40;0.30;;;;;;;7.46;91.34;100315.03;5054519;28;20445;-74
2021/10/22 04:46:23;;;;;;;0.40;0.20;;;;;;;7.44;91.47;100320.72;5054381;28;20438;-75
2021/10/22 04:48:51;;;;;;;0.40;0.30;;;;;;;7.42;92.28;100327.47;5054382;28;20450;-75
2021/10/22 04:51:17;;;;;;;0.40;0.30;;;;;;;7.41;93.10;100326.69;5054306;28;20442;-75
2021/10/22 04:53:44;;;;;;;0.40;0.30;;;;;;;7.41;92.58;100323.19;5054308;28;20473;-74
2021/10/22 04:56:10;;;;;;;0.40;0.30;;;;;;;7.41;91.73;100320.50;5054215;28;20489;-73
2021/10/22 04:58:38;;;;;;;0.40;0.30;;;;;;;7.38;91.94;100327.25;5053819;28;20982;-75
2021/10/22 05:01:04;;;;;;;0.40;0.30;;;;;;;7.39;90.83;100320.75;5053855;28;20500;-75
2021/10/22 05:03:31;;;;;;;0.40;0.27;;;;;;;7.39;91.15;100319.97;5053315;28;20442;-75
2021/10/22 05:05:59;;;;;;;0.40;0.30;;;;;;;7.40;90.81;100329.66;5054193;28;20446;-76
2021/10/22 05:08:25;;;;;;;0.40;0.30;;;;;;;7.38;91.96;100331.84;5054018;28;20516;-76
2021/10/22 05:10:52;;;;;;;0.40;0.20;;;;;;;7.35;90.96;100319.75;5054016;28;20821;-76
2021/10/22 05:13:18;;;;;;;0.40;0.23;;;;;;;7.39;91.35;100323.44;5054175;28;20453;-75
2021/10/22 05:15:45;;;;;;;0.40;0.30;;;;;;;7.41;90.56;100326.69;5053861;28;20485;-76
2021/10/22 05:18:11;;;;;;;0.40;0.23;;;;;;;7.37;90.80;100320.25;5053566;28;20474;-77
2021/10/22 05:20:38;;;;;;;0.40;0.30;;;;;;;7.34;90.97;100318.91;5053589;28;20955;-76
2021/10/22 05:23:05;;;;;;;0.40;0.30;;;;;;;7.38;92.09;100323.75;5053802;28;20442;-77
2021/10/22 05:25:32;;;;;;;0.40;0.30;;;;;;;7.36;91.45;100320.56;5053361;28;20817;-76
2021/10/22 05:27:59;;;;;;;0.40;0.30;;;;;;;7.32;91.72;100320.31;5053676;28;20470;-76
2021/10/22 05:30:26;;;;;;;0.40;0.20;;;;;;;7.33;92.17;100311.94;5053421;28;20943;-76
2021/10/22 05:32:52;;;;;;;0.40;0.27;;;;;;;7.36;91.32;100312.47;5053604;28;20453;-76
2021/10/22 05:35:18;;;;;;;2.00;1.23;;;;;;;7.31;91.13;100313.31;5053533;28;20490;-76
2021/10/22 05:37:45;;;;;;;0.40;0.30;;;;;;;7.29;91.28;100308.19;5053784;28;20473;-78
2021/10/22 05:40:13;;;;;;;0.40;0.30;;;;;;;7.24;91.83;100310.97;5053511;28;20994;-75
2021/10/22 05:42:39;;;;;;;0.40;0.30;;;;;;;7.27;92.16;100307.69;5053159;28;20449;-75
2021/10/22 05:45:07;;;;;;;0.40;0.20;;;;;;;7.27;92.02;100298.81;5053404;28;20477;-76
2021/10/22 05:47:34;;;;;;;0.40;0.30;;;;;;;7.27;91.71;100306.91;5053515;28;20472;-76
2021/10/22 05:50:01;;;;;;;0.40;0.30;;;;;;;7.26;92.26;100297.19;5053371;28;20447;-75
2021/10/22 05:52:28;;;;;;;0.93;0.93;;;;;;;7.30;91.95;100299.06;5053325;28;20434;-74
2021/10/22 05:54:54;;;;;;;0.40;0.30;;;;;;;7.37;91.78;100297.91;5053300;28;20439;-75
2021/10/22 05:57:22;;;;;;;0.40;0.30;;;;;;;7.33;91.77;100297.66;5053134;28;20494;-75
2021/10/22 05:59:49;;;;;;;0.40;0.27;;;;;;;7.36;91.80;100307.88;5052969;28;20453;-74
2021/10/22 06:02:16;;;;;;;0.40;0.20;;;;;;;7.39;90.86;100304.59;5052894;28;20465;-75
2021/10/22 06:04:43;;;;;;;0.40;0.30;;;;;;;7.42;91.13;100306.72;5053097;28;20544;-74
2021/10/22 06:07:09;;;;;;;0.40;0.23;;;;;;;7.47;90.87;100297.78;5053078;28;20466;-75
2021/10/22 06:09:36;;;;;;;0.40;0.30;;;;;;;7.44;89.74;100299.16;5053013;28;20451;-75
2021/10/22 06:12:09;;;;;;;0.40;0.30;;;;;;;7.50;90.37;100300.69;5053069;28;20449;-74
2021/10/22 06:14:38;;;;;;;0.40;0.30;;;;;;;7.53;89.82;100312.81;5053689;28;20434;-73
2021/10/22 06:17:04;;;;;;;0.40;0.30;;;;;;;7.62;90.34;100302.19;5056778;28;20514;-75
2021/10/22 06:19:35;;;;;;;0.40;0.20;;;;;;;7.63;89.70;100310.00;5057022;28;20472;-74
2021/10/22 06:22:18;;;;;;;0.40;0.30;;;;;;;7.70;89.23;100305.06;5057217;28;20434;-74
2021/10/22 06:24:44;;;;;;;0.40;0.30;;;;;;;7.77;88.67;100310.09;5057106;28;20431;-74
2021/10/22 06:27:13;;;;;;;0.40;0.30;;;;;;;7.77;88.66;100304.69;5057041;28;20500;-74
2021/10/22 06:29:41;;;;;;;0.40;0.30;;;;;;;7.83;88.82;100309.75;5057275;28;20445;-74
2021/10/22 06:32:07;;;;;;;0.40;0.30;;;;;;;7.86;88.32;100300.25;5057004;28;20442;-74
2021/10/22 06:34:34;;;;;;;0.40;0.30;;;;;;;7.89;88.40;100293.50;5056940;28;20443;-74
2021/10/22 06:37:01;;;;;;;0.40;0.30;;;;;;;7.91;88.00;100296.69;5056711;28;20493;-74
2021/10/22 06:39:27;;;;;;;0.40;0.23;;;;;;;7.96;87.00;100304.72;5056540;28;20456;-75
2021/10/22 06:41:54;;;;;;;0.40;0.30;;;;;;;8.02;86.45;100308.97;5056536;28;20953;-75
2021/10/22 06:44:23;;;;;;;0.40;0.20;;;;;;;8.03;85.39;100303.28;5056536;28;20446;-75
2021/10/22 06:46:51;;;;;;;0.40;0.30;;;;;;;8.07;86.16;100298.09;5056639;28;20470;-75
2021/10/22 06:49:18;;;;;;;0.40;0.20;;;;;;;8.09;86.18;100309.38;5056685;28;20446;-75
2021/10/22 06:51:45;;;;;;;0.40;0.30;;;;;;;8.15;85.34;100299.34;5056641;28;20453;-75
2021/10/22 06:54:11;;;;;;;0.40;0.30;;;;;;;8.19;86.07;100294.94;5056581;28;20869;-74
2021/10/22 06:56:38;;;;;;;0.40;0.30;;;;;;;8.23;85.09;100304.88;5056412;28;20493;-76
2021/10/22 06:59:04;;;;;;;0.40;0.30;;;;;;;8.29;83.91;100302.91;5056545;28;20438;-70
2021/10/22 07:01:31;;;;;;;0.40;0.30;;;;;;;8.33;84.75;100298.53;5056507;28;20445;-73
2021/10/22 07:03:59;;;;;;;0.40;0.20;;;;;;;8.31;84.60;100293.41;5056516;28;20451;-72
2021/10/22 07:09:09;;;;;;;0.40;0.30;;;;;;;8.41;82.77;100300.63;5056227;28;20409;-73
2021/10/22 07:11:37;;;;;;;0.40;0.20;;;;;;;8.46;82.94;100303.22;5056270;28;20865;-73
2021/10/22 07:14:06;;;;;;;0.40;0.20;;;;;;;8.51;82.07;100289.66;5056155;28;20445;-73
2021/10/22 07:16:33;;;;;;;0.40;0.27;;;;;;;8.51;82.83;100300.44;5056102;28;20528;-73
2021/10/22 07:19:00;;;;;;;0.40;0.30;;;;;;;8.55;83.07;100287.16;5056145;28;20461;-74
2021/10/22 07:21:29;;;;;;;0.40;0.27;;;;;;;8.61;81.94;100291.38;5056198;28;20445;-73
2021/10/22 07:23:57;;;;;;;0.40;0.30;;;;;;;8.63;82.44;100294.56;5056100;28;20458;-74
2021/10/22 07:26:23;;;;;;;0.40;0.30;;;;;;;8.59;81.10;100288.97;5055375;28;20936;-70
2021/10/22 07:28:50;;;;;;;0.40;0.30;;;;;;;8.67;81.31;100289.38;5055881;28;20445;-72
2021/10/22 07:31:17;;;;;;;0.40;0.30;;;;;;;8.68;81.39;100289.09;5055926;28;20457;-72
2021/10/22 07:33:45;;;;;;;0.40;0.30;;;;;;;8.70;80.23;100281.50;5055862;28;20450;-73
2021/10/22 07:36:14;;;;;;;0.40;0.30;;;;;;;8.66;80.81;100285.88;5055416;28;20492;-74
2021/10/22 07:38:43;;;;;;;0.40;0.30;;;;;;;8.67;80.10;100282.09;5055407;28;20446;-73
2021/10/22 07:41:10;;;;;;;0.40;0.30;;;;;;;8.64;80.73;100282.69;5055684;28;20498;-74
2021/10/22 07:43:37;;;;;;;0.40;0.23;;;;;;;8.68;80.52;100281.00;5055589;28;20454;-74
2021/10/22 07:46:04;;;;;;;0.40;0.30;;;;;;;8.68;80.47;100278.31;5055607;28;20438;-74
2021/10/22 07:48:30;;;;;;;0.40;0.30;;;;;;;8.75;80.38;100281.41;5055193;28;20874;-73
2021/10/22 07:50:57;;;;;;;0.40;0.20;;;;;;;8.81;80.37;100274.84;5055528;28;20453;-73
2021/10/22 07:53:25;;;;;;;0.40;0.30;;;;;;;8.86;80.45;100283.97;5055169;28;20932;-74
2021/10/22 07:55:51;;;;;;;0.40;0.30;;;;;;;8.86;80.63;100286.66;5055021;28;20927;-73
2021/10/22 07:58:17;;;;;;;0.40;0.20;;;;;;;8.90;79.64;100296.56;5055320;28;20485;-73
2021/10/22 08:00:44;;;;;;;0.40;0.30;;;;;;;8.94;80.39;100285.94;5055006;28;20835;-73
2021/10/22 08:03:11;;;;;;;0.40;0.30;;;;;;;8.89;81.01;100283.34;5055330;28;20545;-74
2021/10/22 08:05:37;;;;;;;0.40;0.30;;;;;;;8.93;80.28;100279.75;5055235;28;20454;-74
2021/10/22 08:08:04;;;;;;;0.40;0.30;;;;;;;8.98;79.69;100279.66;5054833;28;21000;-74
2021/10/22 08:10:33;;;;;;;0.70;0.70;;;;;;;9.00;80.51;100276.69;5055195;28;20452;-73
2021/10/22 08:13:00;;;;;;;0.40;0.30;;;;;;;8.97;78.85;100290.78;5055129;28;20442;-74
2021/10/22 08:15:27;;;;;;;0.40;0.30;;;;;;;8.95;79.66;100284.88;5055072;28;20460;-73
2021/10/22 08:17:55;;;;;;;0.40;0.30;;;;;;;8.96;78.82;100283.78;5054878;28;20493;-73
2021/10/22 08:20:23;;;;;;;0.40;0.30;;;;;;;8.96;79.82;100278.38;5054827;28;20454;-74
2021/10/22 08:22:49;;;;;;;0.40;0.30;;;;;;;9.01;79.73;100281.78;5054903;28;20500;-73
2021/10/22 08:25:17;;;;;;;0.40;0.30;;;;;;;9.03;78.80;100270.66;5054926;28;20445;-74
2021/10/22 08:27:47;;;;;;;0.40;0.30;;;;;;;9.07;78.69;100271.66;5054721;28;20469;-74
2021/10/22 08:30:16;;;;;;;0.40;0.30;;;;;;;9.18;79.21;100269.59;5054764;28;20442;-74
2021/10/22 08:32:47;;;;;;;0.40;0.30;;;;;;;9.18;78.36;100261.47;5054783;28;20470;-73
2021/10/22 08:35:14;;;;;;;0.40;0.30;;;;;;;9.22;76.88;100266.00;5054691;28;20426;-74
2021/10/22 08:37:40;;;;;;;0.40;0.30;;;;;;;9.23;78.38;100256.78;5053122;28;20489;-74
2021/10/22 08:40:08;;;;;;;0.40;0.30;;;;;;;9.25;77.35;100260.00;5054679;28;20453;-74
2021/10/22 08:42:36;;;;;;;0.40;0.30;;;;;;;9.30;76.61;100262.59;5054552;28;20442;-75
2021/10/22 08:45:05;;;;;;;0.40;0.20;;;;;;;9.42;78.59;100263.97;5054514;28;20442;-74
2021/10/22 08:47:33;;;;;;;0.70;0.70;;;;;;;9.48;77.06;100246.56;5054331;28;20459;-73
2021/10/22 08:50:01;;;;;;;0.40;0.30;;;;;;;9.55;75.82;100253.16;5054711;28;20449;-72
2021/10/22 08:52:28;;;;;;;0.40;0.30;;;;;;;9.61;75.45;100245.75;5054103;28;20881;-76
2021/10/22 08:54:55;;;;;;;0.40;0.30;;;;;;;9.69;76.22;100252.34;5054253;28;20465;-73
2021/10/22 08:57:22;;;;;;;0.40;0.30;;;;;;;9.74;74.45;100244.94;5054229;28;20862;-73
2021/10/22 08:59:48;;;;;;;0.40;0.30;;;;;;;9.82;74.31;100241.47;5054204;28;20442;-74
2021/10/22 09:02:20;;;;;;;0.40;0.30;;;;;;;9.91;74.68;100248.88;5054202;28;20473;-73
2021/10/22 09:04:47;;;;;;;0.40;0.30;;;;;;;9.97;74.44;100242.28;5053877;28;20529;-74
2021/10/22 09:07:16;;;;;;;0.40;0.30;;;;;;;10.05;73.28;100222.59;5054037;28;20474;-73
2021/10/22 09:09:43;;;;;;;0.40;0.20;;;;;;;10.10;72.39;100227.91;5054237;28;20482;-73
2021/10/22 09:12:10;;;;;;;0.40;0.30;;;;;;;10.20;72.48;100224.16;5054047;28;20450;-74
2021/10/22 09:14:37;;;;;;;0.40;0.30;;;;;;;10.33;71.58;100234.94;5053654;28;20811;-75
2021/10/22 09:17:11;;;;;;;0.40;0.30;;;;;;;10.42;71.26;100242.31;5054071;28;20488;-73
2021/10/22 09:19:42;;;;;;;0.40;0.30;;;;;;;10.37;71.17;100239.75;5053584;28;20462;-74
2021/10/22 09:22:23;;;;;;;0.40;0.30;;;;;;;10.44;71.48;100234.69;5053907;28;20435;-74
2021/10/22 09:24:51;;;;;;;0.40;0.30;;;;;;;10.42;70.84;100242.31;5053854;28;20453;-74
2021/10/22 09:27:33;;;;;;;0.40;0.30;;;;;;;10.44;72.07;100229.28;5053368;28;20971;-73
2021/10/22 09:30:00;;;;;;;0.40;0.30;;;;;;;10.48;71.61;100225.63;5054075;28;20459;-74
2021/10/22 09:32:27;;;;;;;0.40;0.30;;;;;;;10.44;72.51;100240.91;5053764;28;20434;-74
2021/10/22 09:34:54;;;;;;;0.40;0.30;;;;;;;10.42;72.50;100237.72;5053590;28;20430;-74
2021/10/22 09:37:21;;;;;;;0.40;0.30;;;;;;;10.38;71.98;100236.72;5053560;28;20859;-73
2021/10/22 09:39:47;;;;;;;0.40;0.30;;;;;;;10.43;72.94;100223.06;5053647;28;20446;-74
2021/10/22 09:42:16;;;;;;;0.40;0.30;;;;;;;10.52;72.00;100215.78;5053664;28;20457;-74
2021/10/22 09:44:44;;;;;;;0.40;0.30;;;;;;;10.61;72.38;100215.84;5053530;28;20442;-74
2021/10/22 09:47:16;;;;;;;0.40;0.30;;;;;;;10.58;71.13;100227.28;5053078;28;21014;-73
2021/10/22 09:49:45;;;;;;;0.40;0.30;;;;;;;10.46;72.81;100205.41;5053529;28;20427;-74
2021/10/22 09:52:18;;;;;;;0.40;0.30;;;;;;;10.44;73.73;100223.84;5053175;28;20990;-73
2021/10/22 09:54:46;;;;;;;0.40;0.30;;;;;;;10.35;74.38;100232.72;5053597;28;20481;-73
2021/10/22 09:57:15;;;;;;;0.40;0.27;;;;;;;10.34;73.57;100219.50;5053170;28;20498;-73
2021/10/22 09:59:43;;;;;;;0.40;0.30;;;;;;;10.37;71.87;100228.91;5053689;28;20541;-74
2021/10/22 10:02:11;;;;;;;0.40;0.30;;;;;;;10.42;72.91;100216.06;5052902;28;20944;-73
2021/10/22 10:04:40;;;;;;;0.40;0.30;;;;;;;10.44;72.26;100213.81;5053198;28;20452;-73
2021/10/22 10:07:08;;;;;;;0.40;0.23;;;;;;;10.39;72.11;100211.25;5053067;28;20457;-74
2021/10/22 10:09:37;;;;;;;0.40;0.30;;;;;;;10.42;72.34;100220.66;5053202;28;20465;-74
2021/10/22 10:12:05;;;;;;;0.40;0.30;;;;;;;10.41;72.09;100219.88;5053249;28;20450;-74
2021/10/22 10:14:32;;;;;;;0.40;0.30;;;;;;;10.38;71.98;100209.66;5053136;28;20533;-73
2021/10/22 10:17:00;;;;;;;0.40;0.30;;;;;;;10.42;73.38;100217.97;5052914;28;20493;-74
2021/10/22 10:19:30;;;;;;;0.40;0.30;;;;;;;10.47;72.05;100207.00;5052769;28;20960;-74
2021/10/22 10:21:59;;;;;;;0.40;0.30;;;;;;;10.46;72.27;100200.00;5053145;28;20426;-71
2021/10/22 10:24:30;;;;;;;0.40;0.30;;;;;;;10.48;72.04;100195.84;5053059;28;20451;-75
2021/10/22 10:27:05;;;;;;;0.40;0.30;;;;;;;10.49;71.67;100216.44;5053185;28;20470;-74
2021/10/22 10:29:34;;;;;;;0.40;0.30;;;;;;;10.54;72.12;100197.34;5053077;28;20436;-74
2021/10/22 10:32:03;;;;;;;0.40;0.30;;;;;;;10.53;73.05;100201.13;5052959;28;20460;-74
2021/10/22 10:34:42;;;;;;;0.40;0.27;;;;;;;10.41;71.91;100208.25;5052926;28;20536;-74
2021/10/22 10:37:36;;;;;;;0.40;0.20;;;;;;;10.45;72.27;100204.63;5052588;28;21170;-77
2021/10/22 10:40:10;;;;;;;0.40;0.30;;;;;;;10.39;73.53;100199.63;5053171;28;20430;-74
2021/10/22 10:42:42;;;;;;;0.40;0.30;;;;;;;10.37;73.47;100178.28;5052972;28;20457;-75
2021/10/22 10:45:17;;;;;;;0.40;0.20;;;;;;;10.32;73.67;100195.44;5052919;28;20429;-74
2021/10/22 10:47:46;;;;;;;0.40;0.30;;;;;;;10.29;73.57;100179.81;5052804;28;20458;-73
2021/10/22 10:50:16;;;;;;;0.40;0.30;;;;;;;10.32;73.38;100178.41;5053200;28;20447;-73
2021/10/22 10:52:50;;;;;;;0.40;0.30;;;;;;;10.34;74.54;100181.59;5052907;28;20445;-73
2021/10/22 10:55:24;;;;;;;0.40;0.30;;;;;;;10.36;73.25;100184.81;5053050;28;20436;-73
2021/10/22 10:57:53;;;;;;;0.40;0.30;;;;;;;10.36;73.38;100173.97;5052665;28;20593;-73
2021/10/22 11:00:22;;;;;;;0.40;0.30;;;;;;;10.35;73.93;100167.75;5052777;28;20445;-73
2021/10/22 11:03:11;;;;;;;0.40;0.30;;;;;;;10.33;73.24;100169.97;5056365;28;20442;-74
2021/10/22 11:06:12;;;;;;;0.40;0.30;;;;;;;10.40;73.11;100172.22;5056253;28;20928;-74
2021/10/22 11:08:50;;;;;;;0.40;0.30;;;;;;;10.31;73.52;100191.16;5056281;28;20903;-73
2021/10/22 11:11:29;;;;;;;0.40;0.20;;;;;;;10.36;73.75;100173.97;5056413;28;20504;-73
2021/10/22 11:14:10;;;;;;;0.40;0.20;;;;;;;10.42;73.47;100161.91;5056659;28;20442;-75
2021/10/22 11:16:40;;;;;;;0.40;0.30;;;;;;;10.48;73.90;100167.97;5055892;28;20473;-74
2021/10/22 11:19:09;;;;;;;0.40;0.30;;;;;;;10.49;71.75;100153.31;5056076;28;20490;-73
2021/10/22 11:21:37;;;;;;;0.40;0.30;;;;;;;10.54;72.05;100154.00;5056093;28;20532;-76
2021/10/22 11:24:05;;;;;;;0.40;0.30;;;;;;;10.57;71.03;100141.72;5056068;28;20438;-74
2021/10/22 11:26:33;;;;;;;0.40;0.30;;;;;;;10.62;71.12;100141.59;5056009;28;20446;-72
2021/10/22 11:29:13;;;;;;;0.40;0.30;;;;;;;10.58;71.25;100129.78;5055971;28;20442;-72
2021/10/22 11:31:41;;;;;;;0.40;0.30;;;;;;;10.58;71.19;100127.91;5055898;28;20430;-71
2021/10/22 11:34:12;;;;;;;0.40;0.30;;;;;;;10.66;71.36;100139.88;5055866;28;20450;-74
2021/10/22 11:36:40;;;;;;;0.40;0.30;;;;;;;10.70;70.46;100130.00;5055820;28;20490;-74
2021/10/22 11:39:17;;;;;;;0.40;0.23;;;;;;;10.75;70.61;100129.84;5071684;28;20566;-73
2021/10/22 11:41:44;;;;;;;0.40;0.30;;;;;;;10.79;69.80;100143.56;5075763;28;20425;-74